Time;durP1;ratioP1;P1;durP2;ratioP2;P2;SDS_P1;SDS_P2;PMS_P1;PMS_P2;Temp;Humidity;BMP_temperature;BMP_pressure;BME280_temperature;BME280_humidity;BME280_pressure;Samples;Min_cycle;Max_cycle;Signal;HPM_P1;HPM_P2
2023/09/30 00:01:29;;;;;;;29.50;7.82;;;15.00;99.90;;;13.75;100.00;101494.66;4996519;28;20139;-79
2023/09/30 00:03:54;;;;;;;20.75;4.85;;;14.90;99.90;;;13.75;100.00;101494.66;4989170;28;20049;-79
2023/09/30 00:06:20;;;;;;;30.90;5.18;;;14.90;99.90;;;13.68;100.00;101492.41;4994124;28;20033;-80
2023/09/30 00:08:51;;;;;;;28.55;5.20;;;14.80;99.90;;;13.65;100.00;101497.81;4985416;28;20687;-79
2023/09/30 00:11:18;;;;;;;23.15;4.53;;;14.80;99.90;;;13.54;100.00;101488.63;4997490;28;20042;-78
2023/09/30 00:13:44;;;;;;;27.30;5.38;;;14.70;99.90;;;13.52;100.00;101502.84;4931622;28;20042;-81
2023/09/30 00:16:09;;;;;;;32.22;6.00;;;14.60;99.90;;;13.47;100.00;101503.03;4968560;28;20060;-79
2023/09/30 00:18:35;;;;;;;1999.90;999.90;;;14.60;99.90;;;13.41;100.00;101510.41;4963669;28;20115;-78
2023/09/30 00:21:10;;;;;;;29.23;6.57;;;14.50;99.90;;;13.37;100.00;101508.81;4997356;28;20150;-79
2023/09/30 00:23:35;;;;;;;22.15;4.95;;;14.50;99.90;;;13.33;100.00;101514.25;4976686;28;20486;-81
2023/09/30 00:26:02;;;;;;;27.95;4.50;;;14.50;99.90;;;13.27;100.00;101514.50;4959418;28;20097;-79
2023/09/30 00:28:28;;;;;;;26.98;5.93;;;14.40;99.90;;;13.23;100.00;101517.38;4943717;28;20048;-79
2023/09/30 00:31:01;;;;;;;28.25;5.03;;;14.40;99.90;;;13.15;100.00;101520.34;4977773;28;20053;-79
2023/09/30 00:33:26;;;;;;;26.38;5.65;;;14.30;99.90;;;13.08;100.00;101513.63;4930619;28;20042;-80
2023/09/30 00:35:52;;;;;;;28.65;5.72;;;14.20;99.90;;;13.09;100.00;101518.00;4966709;28;20029;-79
2023/09/30 00:38:18;;;;;;;30.98;6.03;;;14.20;99.90;;;13.11;100.00;101524.06;4958833;28;20596;-81
2023/09/30 00:40:52;;;;;;;35.08;6.20;;;14.20;99.90;;;13.11;100.00;101524.06;4967968;28;20048;-81
2023/09/30 00:43:20;;;;;;;29.70;5.95;;;14.20;99.90;;;13.08;100.00;101532.13;4945848;28;20045;-79
2023/09/30 00:45:49;;;;;;;37.38;5.28;;;14.10;99.90;;;13.08;100.00;101532.13;4978988;28;20036;-81
2023/09/30 00:48:20;;;;;;;33.17;5.68;;;14.10;99.90;;;13.05;100.00;101532.28;4948259;28;20037;-81
2023/09/30 00:50:45;;;;;;;38.53;6.90;;;14.10;99.90;;;13.02;100.00;101538.53;5006701;28;20055;-80
2023/09/30 00:53:11;;;;;;;36.47;5.32;;;14.10;99.90;;;12.98;100.00;101536.97;4978298;28;20477;-78
2023/09/30 00:55:37;;;;;;;27.27;5.32;;;14.00;99.90;;;12.97;100.00;101532.59;4981296;28;20148;-80
2023/09/30 00:58:04;;;;;;;1999.90;999.90;;;14.00;99.90;;;12.97;100.00;101537.88;4952623;28;20581;-79
2023/09/30 01:00:35;;;;;;;1999.90;999.90;;;14.00;99.90;;;12.96;100.00;101535.28;4971831;28;20101;-79
2023/09/30 01:03:03;;;;;;;1517.15;765.67;;;14.00;99.90;;;12.92;100.00;101538.09;4983063;28;20134;-80
2023/09/30 01:05:31;;;;;;;1999.90;999.90;;;13.90;99.90;;;12.87;100.00;101537.44;4979232;28;20088;-79
2023/09/30 01:07:57;;;;;;;55.88;50.83;;;13.90;99.90;;;12.84;100.00;101548.13;4942882;28;20029;-81
2023/09/30 01:10:27;;;;;;;40.67;24.08;;;13.80;99.90;;;12.80;100.00;101549.19;4987460;28;20078;-81
2023/09/30 01:12:53;;;;;;;36.08;13.40;;;13.80;99.90;;;12.78;100.00;101560.75;4959466;28;20039;-81
2023/09/30 01:15:19;;;;;;;32.38;5.95;;;13.70;99.90;;;12.76;100.00;101562.59;4931412;28;20070;-79
2023/09/30 01:17:44;;;;;;;30.90;5.47;;;13.80;99.90;;;12.75;100.00;101559.09;4991545;28;20037;-80
2023/09/30 01:20:16;;;;;;;29.98;5.43;;;13.70;99.90;;;12.72;100.00;101553.94;4944936;28;20069;-79
2023/09/30 01:22:44;;;;;;;27.00;4.97;;;13.70;99.90;;;12.69;100.00;101551.44;4939062;28;20547;-79
2023/09/30 01:25:11;;;;;;;28.08;5.28;;;13.70;99.90;;;12.66;100.00;101556.84;4990715;28;20041;-79
2023/09/30 01:27:37;;;;;;;22.75;4.93;;;13.70;99.90;;;12.64;100.00;101551.63;4936977;28;20479;-80
2023/09/30 01:30:03;;;;;;;33.55;5.93;;;13.60;99.90;;;12.65;100.00;101563.03;4952613;28;20066;-80
2023/09/30 01:32:29;;;;;;;42.42;6.30;;;13.60;99.90;;;12.61;100.00;101564.97;4988201;28;20038;-79
2023/09/30 01:35:02;;;;;;;32.40;5.78;;;13.60;99.90;;;12.60;100.00;101559.75;4954260;28;20505;-80
2023/09/30 01:37:28;;;;;;;35.20;5.47;;;13.60;99.90;;;12.58;100.00;101565.09;4975557;28;20035;-79
2023/09/30 01:39:54;;;;;;;24.05;5.13;;;13.60;99.90;;;12.58;100.00;101573.00;4953565;28;20071;-79
2023/09/30 01:42:21;;;;;;;37.20;5.60;;;13.60;99.90;;;12.58;100.00;101566.88;4952248;28;20040;-78
2023/09/30 01:44:52;;;;;;;26.50;4.63;;;13.60;99.90;;;12.59;100.00;101573.88;4973176;28;20497;-81
2023/09/30 01:47:18;;;;;;;43.55;7.05;;;13.60;99.90;;;12.60;100.00;101578.25;4964229;28;20049;-79
2023/09/30 01:49:44;;;;;;;31.63;6.00;;;13.60;99.90;;;12.60;100.00;101579.09;4969386;28;20147;-79
2023/09/30 01:52:09;;;;;;;35.38;5.78;;;13.60;99.90;;;12.63;100.00;101586.88;4951839;28;20033;-79
2023/09/30 01:54:35;;;;;;;24.30;5.00;;;13.70;99.90;;;12.65;100.00;101585.03;4966225;28;20099;-80
2023/09/30 01:57:08;;;;;;;23.63;4.78;;;13.70;99.90;;;12.67;100.00;101585.84;4955908;28;20073;-79
2023/09/30 01:59:34;;;;;;;31.30;4.45;;;13.70;99.90;;;12.67;100.00;101584.97;4973135;28;20513;-81
2023/09/30 02:02:00;;;;;;;31.35;5.47;;;13.70;99.90;;;12.61;100.00;101593.16;4993787;28;20124;-78
2023/09/30 02:04:26;;;;;;;27.25;4.70;;;13.70;99.90;;;12.59;100.00;101589.72;4970862;28;20112;-80
2023/09/30 02:06:51;;;;;;;25.98;5.22;;;13.60;99.90;;;12.58;100.00;101595.94;4981239;28;20119;-79
2023/09/30 02:09:22;;;;;;;29.98;5.22;;;13.70;99.90;;;12.55;100.00;101601.31;4984445;28;20055;-81
2023/09/30 02:11:47;;;;;;;28.30;4.93;;;13.60;99.90;;;12.48;100.00;101603.38;4918124;28;20063;-81
2023/09/30 02:14:13;;;;;;;34.92;5.60;;;13.60;99.90;;;12.47;100.00;101612.22;4943907;28;20030;-81
2023/09/30 02:16:39;;;;;;;30.98;5.63;;;13.60;99.90;;;12.48;100.00;101613.94;5000703;28;20041;-78
2023/09/30 02:19:06;;;;;;;30.00;4.95;;;13.60;99.90;;;12.45;100.00;101612.28;4966589;28;20034;-79
2023/09/30 02:21:32;;;;;;;37.08;5.75;;;13.60;99.90;;;12.48;100.00;101608.66;4974829;28;20033;-79
2023/09/30 02:24:07;;;;;;;31.25;5.38;;;13.60;99.90;;;12.47;100.00;101607.78;5009943;28;20036;-79
2023/09/30 02:26:33;;;;;;;27.77;4.95;;;13.60;99.90;;;12.49;100.00;101613.03;5001842;28;20061;-79
2023/09/30 02:28:59;;;;;;;31.77;5.38;;;13.50;99.90;;;12.44;100.00;101621.13;4950105;28;20102;-81
2023/09/30 02:31:24;;;;;;;33.33;4.82;;;13.50;99.90;;;12.41;100.00;101618.59;4997343;28;20509;-81
2023/09/30 02:33:57;;;;;;;32.25;5.25;;;13.40;99.90;;;12.37;100.00;101617.00;4971279;28;20026;-79
2023/09/30 02:36:23;;;;;;;33.05;5.10;;;13.40;99.90;;;12.31;100.00;101622.56;4960599;28;20472;-80
2023/09/30 02:38:49;;;;;;;31.75;5.03;;;13.40;99.90;;;12.29;100.00;101627.03;4947685;28;20053;-79
2023/09/30 02:41:16;;;;;;;33.47;5.82;;;13.30;99.90;;;12.25;100.00;101622.78;4972678;28;20042;-79
2023/09/30 02:43:47;;;;;;;28.88;5.10;;;13.30;99.90;;;12.22;100.00;101620.25;4992234;28;20037;-79
2023/09/30 02:46:13;;;;;;;30.38;4.78;;;13.20;99.90;;;12.19;100.00;101626.53;4953967;28;20618;-79
2023/09/30 02:48:39;;;;;;;32.90;4.80;;;13.20;99.90;;;12.18;100.00;101629.22;4967582;28;20062;-79
2023/09/30 02:51:15;;;;;;;29.00;4.68;;;13.20;99.90;;;12.14;100.00;101635.53;4992343;28;20041;-80
2023/09/30 02:53:40;;;;;;;27.65;4.28;;;13.10;99.90;;;12.08;100.00;101632.22;4966790;28;20043;-79
2023/09/30 02:56:06;;;;;;;27.13;4.80;;;13.10;99.90;;;12.04;100.00;101632.41;4978182;28;20027;-81
2023/09/30 02:58:32;;;;;;;35.63;5.20;;;13.10;99.90;;;12.00;100.00;101638.72;4944608;28;20029;-78
2023/09/30 03:00:59;;;;;;;28.02;4.80;;;13.00;99.90;;;11.98;100.00;101644.03;4955317;28;20029;-80
2023/09/30 03:03:30;;;;;;;29.13;4.95;;;13.00;99.90;;;11.95;100.00;101641.53;4983300;28;20068;-81
2023/09/30 03:05:57;;;;;;;31.88;5.05;;;13.00;99.90;;;11.93;100.00;101656.56;4950168;28;20040;-81
2023/09/30 03:08:24;;;;;;;33.95;5.07;;;13.00;99.90;;;11.89;100.00;101649.66;4992599;28;20036;-80
2023/09/30 03:10:50;;;;;;;31.10;4.60;;;13.00;99.90;;;11.87;100.00;101654.97;4951897;28;20367;-79
2023/09/30 03:13:18;;;;;;;26.33;4.80;;;12.90;99.90;;;11.85;100.00;101645.38;4979227;28;20033;-81
2023/09/30 03:15:49;;;;;;;32.53;5.40;;;12.90;99.90;;;11.80;100.00;101647.34;4970099;28;20030;-79
2023/09/30 03:18:17;;;;;;;39.47;5.10;;;12.90;99.90;;;11.80;100.00;101655.25;4977030;28;20038;-79
2023/09/30 03:20:43;;;;;;;29.65;4.88;;;12.90;99.90;;;11.76;100.00;101653.66;4941427;28;20037;-79
2023/09/30 03:23:19;;;;;;;37.92;5.63;;;12.80;99.90;;;11.75;100.00;101659.81;4933979;28;20034;-78
2023/09/30 03:25:45;;;;;;;28.95;5.40;;;12.80;99.90;;;11.72;100.00;101666.09;4982477;28;20148;-79
2023/09/30 03:28:10;;;;;;;37.15;4.90;;;12.80;99.90;;;11.68;100.00;101654.81;4980769;28;20507;-78
2023/09/30 03:30:36;;;;;;;43.20;5.47;;;12.70;99.90;;;11.64;100.00;101661.09;4969893;28;20041;-80
2023/09/30 03:33:12;;;;;;;33.28;5.00;;;12.70;99.90;;;11.62;100.00;101659.41;4966525;28;20490;-77
2023/09/30 03:35:37;;;;;;;25.87;5.07;;;12.70;99.90;;;11.60;100.00;101666.53;4954407;28;20045;-81
2023/09/30 03:38:04;;;;;;;26.90;4.45;;;12.70;99.90;;;11.57;100.00;101666.63;4946536;28;20038;-79
2023/09/30 03:40:37;;;;;;;1999.90;999.90;;;12.70;99.90;;;11.54;100.00;101662.34;4967112;28;20029;-77
2023/09/30 03:43:05;;;;;;;1502.05;751.45;;;12.60;99.90;;;11.53;100.00;101657.97;4944354;28;20040;-81
2023/09/30 03:45:37;;;;;;;38.92;6.15;;;12.60;99.90;;;11.51;100.00;101662.44;4962564;28;20022;-79
2023/09/30 03:48:03;;;;;;;1502.55;751.80;;;12.60;99.90;;;11.49;100.00;101661.66;4954473;28;20091;-78
2023/09/30 03:50:29;;;;;;;1999.90;999.90;;;12.60;99.90;;;11.47;100.00;101666.97;4942977;28;20045;-78
2023/09/30 03:53:07;;;;;;;1999.90;999.90;;;12.60;99.90;;;11.45;100.00;101666.16;4953438;28;20039;-80
2023/09/30 03:55:33;;;;;;;1999.90;999.90;;;12.50;99.90;;;11.42;100.00;101670.69;4916711;28;20068;-78
2023/09/30 03:57:59;;;;;;;1999.90;999.90;;;12.50;99.90;;;11.39;100.00;101668.16;4965547;28;20032;-79
2023/09/30 04:00:26;;;;;;;41.60;5.10;;;12.50;99.90;;;11.35;100.00;101669.19;4977364;28;20043;-80
2023/09/30 04:02:57;;;;;;;35.25;5.18;;;12.40;99.90;;;11.33;100.00;101678.91;4914269;28;20038;-79
2023/09/30 04:05:36;;;;;;;37.92;5.63;;;12.40;99.90;;;11.29;100.00;101679.03;4963536;28;20041;-81
2023/09/30 04:08:05;;;;;;;38.50;5.10;;;12.40;99.90;;;11.25;100.00;101672.13;4992865;28;20041;-80
2023/09/30 04:10:30;;;;;;;35.50;5.03;;;12.40;99.90;;;11.24;100.00;101683.59;4976574;28;20052;-79
2023/09/30 04:12:56;;;;;;;35.42;5.60;;;12.30;99.90;;;11.22;100.00;101687.19;4936107;28;20038;-81
2023/09/30 04:15:22;;;;;;;38.20;5.53;;;12.30;99.90;;;11.21;100.00;101701.25;4950161;28;20131;-79
2023/09/30 04:17:58;;;;;;;34.88;5.32;;;12.30;99.90;;;11.20;100.00;101689.88;4982489;28;20029;-81
2023/09/30 04:20:26;;;;;;;34.72;5.72;;;12.30;99.90;;;11.19;100.00;101689.94;4966164;28;20041;-81
2023/09/30 04:22:57;;;;;;;46.15;6.28;;;12.30;99.90;;;11.19;100.00;101701.34;4979493;28;20041;-79
2023/09/30 04:25:26;;;;;;;34.22;5.03;;;12.30;99.90;;;11.16;100.00;101693.53;4966298;28;20518;-78
2023/09/30 04:27:52;;;;;;;33.83;5.15;;;12.20;99.90;;;11.15;100.00;101689.19;4982495;28;20072;-79
2023/09/30 04:30:18;;;;;;;33.58;4.93;;;12.20;99.90;;;11.13;100.00;101696.28;4988381;28;20532;-81
2023/09/30 04:32:44;;;;;;;38.97;5.85;;;12.20;99.90;;;11.11;100.00;101686.69;4996593;28;20511;-81
2023/09/30 04:35:17;;;;;;;41.13;5.95;;;12.20;99.90;;;11.08;100.00;101691.16;4981320;28;20033;-80
2023/09/30 04:37:43;;;;;;;38.95;5.45;;;12.20;99.90;;;11.08;100.00;101696.44;4991165;28;20042;-79
2023/09/30 04:40:19;;;;;;;32.55;5.72;;;12.20;99.90;;;11.09;100.00;101702.56;4964305;28;20040;-81
2023/09/30 04:42:48;;;;;;;28.65;5.72;;;12.20;99.90;;;11.06;100.00;101698.25;4991432;28;20033;-79
2023/09/30 04:45:24;;;;;;;40.05;5.30;;;12.20;99.90;;;11.04;100.00;101701.84;4930601;28;20040;-80
2023/09/30 04:47:50;;;;;;;44.03;5.18;;;12.20;99.90;;;11.03;100.00;101695.69;4971229;28;20037;-79
2023/09/30 04:50:16;;;;;;;34.55;5.55;;;12.10;99.90;;;11.04;100.00;101701.84;4983939;28;20049;-80
2023/09/30 04:52:44;;;;;;;34.40;5.30;;;12.10;99.90;;;11.02;100.00;101695.78;4971337;28;20111;-78
2023/09/30 04:55:18;;;;;;;37.70;5.93;;;12.10;99.90;;;11.00;100.00;101684.41;4982728;28;20045;-79
2023/09/30 04:57:48;;;;;;;24.00;4.82;;;12.10;99.90;;;10.99;100.00;101690.59;4965060;28;20043;-79
2023/09/30 05:00:25;;;;;;;41.63;5.47;;;12.10;99.90;;;10.96;100.00;101694.19;4970637;28;20116;-80
2023/09/30 05:02:52;;;;;;;;;;;12.10;99.90;;;10.90;100.00;101696.16;4968510;28;20503;-78
2023/09/30 05:05:23;;;;;;;29.02;4.80;;;12.00;99.90;;;10.86;100.00;101692.75;4970123;28;19920;-80
2023/09/30 05:07:49;;;;;;;35.58;5.22;;;12.00;99.90;;;10.84;100.00;101705.13;4959597;28;20121;-79
2023/09/30 05:10:16;;;;;;;30.35;4.88;;;12.00;99.90;;;10.85;100.00;101699.81;5000883;28;20049;-79
2023/09/30 05:12:45;;;;;;;35.75;4.97;;;12.00;99.90;;;10.84;100.00;101697.22;4999209;28;20049;-79
2023/09/30 05:15:19;;;;;;;28.63;4.55;;;11.90;99.90;;;10.83;100.00;101696.34;4973075;28;20486;-79
2023/09/30 05:17:48;;;;;;;36.55;5.30;;;12.00;99.90;;;10.83;100.00;101699.00;4971871;28;22243;-79
2023/09/30 05:20:19;;;;;;;25.10;5.07;;;11.90;99.90;;;10.84;100.00;101703.38;4977469;28;20127;-80
2023/09/30 05:22:45;;;;;;;41.38;5.25;;;11.90;99.90;;;10.85;100.00;101715.63;5018793;28;20045;-81
2023/09/30 05:25:26;;;;;;;30.90;5.18;;;11.90;99.90;;;10.86;100.00;101721.75;4965325;28;20040;-79
2023/09/30 05:27:51;;;;;;;27.38;4.90;;;12.00;99.90;;;10.85;100.00;101720.03;4970155;28;20056;-78
2023/09/30 05:30:19;;;;;;;30.52;5.45;;;12.00;99.90;;;10.86;100.00;101721.75;4967411;28;20054;-79
2023/09/30 05:32:50;;;;;;;36.83;5.70;;;12.00;99.90;;;10.87;100.00;101731.38;4988707;28;20044;-80
2023/09/30 05:35:16;;;;;;;39.30;6.18;;;12.00;99.90;;;10.87;100.00;101729.59;4940882;28;20151;-79
2023/09/30 05:37:45;;;;;;;26.35;4.78;;;12.00;99.90;;;10.92;100.00;101731.22;4987481;28;20041;-77
2023/09/30 05:40:21;;;;;;;30.98;4.53;;;12.00;99.90;;;10.94;100.00;101740.81;4969758;28;20041;-78
2023/09/30 05:42:51;;;;;;;40.85;5.53;;;12.10;99.90;;;10.96;100.00;101744.25;4947411;28;20072;-81
2023/09/30 05:45:16;;;;;;;34.63;5.20;;;12.10;99.90;;;10.99;100.00;101753.84;4971184;28;20052;-79
2023/09/30 05:47:47;;;;;;;26.85;4.85;;;12.10;99.90;;;11.04;100.00;101757.19;5000460;28;20505;-78
2023/09/30 05:50:16;;;;;;;31.25;4.95;;;12.10;99.90;;;11.08;100.00;101764.09;4980980;28;20045;-78
2023/09/30 05:52:43;;;;;;;30.67;5.47;;;12.20;99.90;;;11.14;100.00;101763.88;4939528;28;20043;-79
2023/09/30 05:55:09;;;;;;;33.92;5.40;;;12.20;99.90;;;11.19;100.00;101761.13;4971540;28;20442;-79
2023/09/30 05:57:40;;;;;;;41.50;6.22;;;12.30;99.90;;;11.25;100.00;101758.25;4996964;28;20041;-78
2023/09/30 06:00:28;;;;;;;42.00;5.60;;;12.30;99.90;;;11.32;100.00;101770.34;4955576;28;20082;-80
2023/09/30 06:02:52;;;;;;;25.25;4.50;;;12.40;99.90;;;11.40;100.00;101770.97;4998600;28;20427;-79
2023/09/30 06:05:23;;;;;;;31.33;5.25;;;12.50;99.90;;;11.47;100.00;101768.97;4978909;28;20050;-80
2023/09/30 06:07:49;;;;;;;29.73;4.80;;;12.50;99.90;;;11.54;100.00;101762.56;5031086;28;20064;-78
2023/09/30 06:10:18;;;;;;;38.03;6.25;;;12.60;99.90;;;11.60;100.00;101765.00;5005900;28;20040;-79
2023/09/30 06:12:48;;;;;;;29.63;5.28;;;12.70;99.90;;;11.69;100.00;101771.75;4998272;28;20049;-81
2023/09/30 06:15:21;;;;;;;37.08;5.20;;;12.70;99.90;;;11.75;100.00;101783.84;4988288;28;20082;-80
2023/09/30 06:18:04;;;;;;;37.15;5.55;;;12.80;99.90;;;11.81;100.00;101779.19;4965978;28;20038;-78
2023/09/30 06:20:38;;;;;;;40.17;6.55;;;12.90;99.90;;;11.91;100.00;101793.00;4963066;28;20040;-80
2023/09/30 06:23:03;;;;;;;30.85;5.68;;;12.90;99.90;;;11.98;100.00;101778.66;4980473;28;20044;-79
2023/09/30 06:25:30;;;;;;;38.58;6.18;;;13.00;99.90;;;12.09;100.00;101787.06;4985820;28;20409;-78
2023/09/30 06:27:56;;;;;;;41.17;5.55;;;13.10;99.90;;;12.16;100.00;101784.19;4988452;28;20081;-80
2023/09/30 06:30:30;;;;;;;30.35;5.60;;;13.20;99.90;;;12.22;100.00;101787.44;4945333;28;20427;-78
2023/09/30 06:32:57;;;;;;;27.13;5.07;;;13.20;99.90;;;12.33;100.00;101792.34;4947610;28;22378;-80
2023/09/30 06:35:23;;;;;;;29.45;5.45;;;13.30;99.90;;;12.40;100.00;101796.50;4941590;28;20033;-79
2023/09/30 06:37:49;;;;;;;31.27;4.90;;;13.40;99.90;;;12.50;100.00;101800.53;4975833;28;20515;-79
2023/09/30 06:40:19;;;;;;;24.02;4.63;;;13.50;99.90;;;12.59;100.00;101801.97;4951391;28;20044;-79
2023/09/30 06:42:45;;;;;;;32.10;5.25;;;13.60;99.90;;;12.68;100.00;101793.69;4925636;28;20441;-81
2023/09/30 06:45:12;;;;;;;28.02;5.28;;;13.70;99.90;;;12.81;100.00;101809.06;4970597;28;20040;-79
2023/09/30 06:47:41;;;;;;;25.63;5.05;;;13.80;99.90;;;12.87;100.00;101817.63;4975962;28;20049;-81
2023/09/30 06:50:16;;;;;;;37.20;5.80;;;13.90;99.90;;;12.98;100.00;101814.56;4941131;28;20034;-79
2023/09/30 06:52:45;;;;;;;26.17;5.45;;;14.00;99.90;;;13.10;100.00;101824.63;4974844;28;20036;-79
2023/09/30 06:55:16;;;;;;;32.13;5.50;;;14.10;99.90;;;13.23;100.00;101825.00;4972947;28;20627;-78
2023/09/30 06:57:42;;;;;;;26.13;4.68;;;14.30;99.90;;;13.37;100.00;101829.78;4994467;28;20040;-78
2023/09/30 07:00:15;;;;;;;23.08;4.72;;;14.30;99.90;;;13.48;100.00;101837.28;4969521;28;20041;-78
2023/09/30 07:02:44;;;;;;;33.22;5.47;;;14.50;99.90;;;13.57;100.00;101831.59;4977119;28;20102;-79
2023/09/30 07:05:14;;;;;;;31.33;4.93;;;14.60;99.90;;;13.67;100.00;101847.94;4976599;28;20191;-79
2023/09/30 07:07:43;;;;;;;30.92;5.25;;;14.60;99.90;;;13.79;100.00;101844.78;4997010;28;20044;-78
2023/09/30 07:10:12;;;;;;;25.55;4.40;;;14.80;99.90;;;13.90;100.00;101847.84;4973187;28;20114;-79
2023/09/30 07:12:38;;;;;;;29.52;5.70;;;14.90;99.90;;;13.96;100.00;101841.44;4980071;28;20038;-79
2023/09/30 07:15:05;;;;;;;29.25;4.80;;;14.90;99.90;;;14.04;100.00;101855.22;4951491;28;20044;-78
2023/09/30 07:17:33;;;;;;;30.05;5.18;;;15.10;99.90;;;14.18;100.00;101853.75;4934862;28;20057;-79
2023/09/30 07:20:07;;;;;;;18.52;3.88;;;15.20;99.90;;;14.30;100.00;101856.72;4977159;28;20529;-78
2023/09/30 07:22:34;;;;;;;25.60;4.50;;;15.20;99.90;;;14.32;100.00;101859.31;4994275;28;20036;-79
2023/09/30 07:25:00;;;;;;;27.15;4.75;;;15.30;99.90;;;14.44;100.00;101868.47;4945411;28;20051;-79
2023/09/30 07:27:31;;;;;;;25.15;4.10;;;15.40;99.90;;;14.57;100.00;101865.22;4984104;28;20033;-79
2023/09/30 07:30:05;;;;;;;21.77;4.15;;;15.60;99.90;;;14.69;100.00;101873.59;4954427;28;20120;-86
2023/09/30 07:32:38;;;;;;;25.88;3.83;;;;;;;14.85;100.00;101873.72;4944833;28;20041;-82
2023/09/30 07:35:04;;;;;;;27.75;4.75;;;15.80;99.90;;;14.92;100.00;101873.38;5003104;28;20053;-79
2023/09/30 07:37:30;;;;;;;21.08;4.85;;;15.90;99.90;;;15.03;100.00;101883.50;4939411;28;20176;-78
2023/09/30 07:39:56;;;;;;;21.15;4.43;;;15.90;99.90;;;15.07;100.00;101870.91;4996057;28;20025;-81
2023/09/30 07:42:33;;;;;;;25.40;3.85;;;16.00;99.90;;;15.21;100.00;101879.09;4988600;28;20182;-79
2023/09/30 07:44:58;;;;;;;21.80;3.90;;;16.20;99.90;;;15.33;99.18;101881.16;4984525;28;20058;-79
2023/09/30 07:47:24;;;;;;;32.58;4.57;;;16.30;99.90;;;15.58;99.90;101887.94;4946965;28;20438;-83
2023/09/30 07:50:12;;;;;;;27.88;4.30;;;;;;;15.84;98.65;101886.66;4952137;28;20037;-80
2023/09/30 07:52:41;;;;;;;26.50;4.95;;;16.80;99.90;;;16.09;97.59;101898.69;4980226;28;20091;-84
2023/09/30 07:55:18;;;;;;;79.95;57.90;;;16.90;99.90;;;16.20;95.24;101899.88;4937275;28;20039;-83
2023/09/30 07:57:46;;;;;;;24.30;4.00;;;17.00;99.90;;;16.22;93.06;101904.22;4973183;28;20071;-81
2023/09/30 08:00:18;;;;;;;23.23;3.53;;;17.10;99.90;;;16.24;91.57;101910.31;4984419;28;20474;-81
2023/09/30 08:02:49;;;;;;;21.42;3.72;;;17.20;99.90;;;16.24;90.35;101903.25;4981934;28;22838;-82
2023/09/30 08:05:22;;;;;;;18.55;3.42;;;17.10;99.90;;;16.13;88.99;101908.22;4988231;28;20039;-83
2023/09/30 08:07:48;;;;;;;34.30;10.10;;;17.10;99.90;;;16.03;88.79;101912.31;4984026;28;20068;-81
2023/09/30 08:10:16;;;;;;;18.60;6.47;;;17.00;99.90;;;15.99;89.63;101906.28;4943022;28;20045;-82
2023/09/30 08:12:46;;;;;;;21.73;4.38;;;;;;;15.98;90.13;101916.06;4947524;28;20037;-82
2023/09/30 08:15:17;;;;;;;17.52;3.70;;;17.00;99.90;;;16.04;89.86;101903.38;4993887;28;20053;-82
2023/09/30 08:17:43;;;;;;;24.70;4.57;;;17.00;99.90;;;16.09;90.19;101918.16;5020759;28;20092;-81
2023/09/30 08:20:09;;;;;;;21.00;4.10;;;17.10;99.90;;;16.10;89.41;101919.03;4949699;28;20034;-81
2023/09/30 08:22:35;;;;;;;23.70;4.30;;;17.10;99.90;;;16.13;89.55;101922.38;4978788;28;20037;-82
2023/09/30 08:25:06;;;;;;;32.00;4.95;;;17.20;99.90;;;16.22;89.31;101928.16;4979032;28;20037;-80
2023/09/30 08:27:32;;;;;;;18.40;3.47;;;17.20;99.90;;;16.31;89.09;101923.22;4924268;28;20039;-82
2023/09/30 08:30:04;;;;;;;17.88;3.72;;;17.20;99.90;;;16.30;87.82;101920.66;4943916;28;20054;-82
2023/09/30 08:32:37;;;;;;;25.13;3.97;;;17.30;99.90;;;16.35;87.26;101934.56;4952852;28;20030;-82
2023/09/30 08:35:04;;;;;;;19.00;3.80;;;17.30;99.90;;;16.39;86.92;101934.34;4903768;28;20039;-82
2023/09/30 08:37:31;;;;;;;24.63;4.00;;;17.30;99.90;;;16.40;86.90;101937.84;4945552;28;20044;-83
2023/09/30 08:39:56;;;;;;;25.00;4.07;;;17.40;99.90;;;16.37;86.36;101930.91;4991799;28;20064;-83
2023/09/30 08:42:33;;;;;;;28.17;4.40;;;17.40;99.90;;;16.43;86.24;101929.69;4967346;28;20426;-84
2023/09/30 08:47:34;;;;;;;18.63;3.92;;;17.50;99.90;;;16.58;85.73;101936.00;5026583;23;20037;-80
2023/09/30 08:52:53;;;;;;;46.00;36.33;;;17.80;99.90;;;16.89;85.56;101943.28;4967656;28;20084;-80
2023/09/30 08:55:19;;;;;;;26.05;4.72;;;17.90;99.90;;;17.17;85.81;101939.06;4993153;28;20040;-81
2023/09/30 08:57:45;;;;;;;20.35;4.20;;;18.20;99.90;;;17.46;85.87;101939.28;5002753;28;20406;-81
2023/09/30 09:00:13;;;;;;;19.30;4.13;;;18.40;99.90;;;17.59;84.70;101950.94;5006286;28;20086;-81
2023/09/30 09:02:44;;;;;;;21.42;4.40;;;18.50;99.90;;;17.81;82.09;101951.44;4970510;28;20091;-79
2023/09/30 09:05:11;;;;;;;21.10;4.00;;;18.70;99.90;;;17.92;81.75;101949.97;5005079;28;20041;-81
2023/09/30 09:07:39;;;;;;;20.50;4.13;;;18.90;99.90;;;18.27;81.86;101952.38;5009231;28;20111;-82
2023/09/30 09:10:12;;;;;;;14.43;4.13;;;19.10;99.90;;;18.47;79.04;101954.72;4995034;28;20036;-81
2023/09/30 09:12:42;;;;;;;17.55;3.80;;;19.30;99.90;;;18.57;77.83;101966.53;5006423;28;20114;-82
2023/09/30 09:15:23;;;;;;;20.75;3.85;;;19.30;99.90;;;18.42;75.76;101962.13;5038620;28;20432;-81
2023/09/30 09:17:56;;;;;;;18.10;4.50;;;19.30;99.90;;;18.41;76.11;101966.59;4987184;28;20047;-81
2023/09/30 09:20:25;;;;;;;16.00;3.35;;;19.20;99.90;;;18.33;76.89;101960.88;5006579;28;20392;-81
2023/09/30 09:23:06;;;;;;;19.88;3.75;;;19.20;99.90;;;18.34;75.87;101965.25;5024917;28;20076;-80
2023/09/30 09:25:41;;;;;;;15.93;3.60;;;19.20;99.90;;;18.07;76.83;101965.06;5020998;28;20036;-80
2023/09/30 09:28:08;;;;;;;16.77;3.45;;;19.10;99.90;;;17.97;78.29;101959.44;5052706;28;20507;-82
2023/09/30 09:30:50;;;;;;;18.95;3.88;;;;;;;18.10;78.74;101964.91;5027249;28;20045;-88
2023/09/30 09:40:41;;;;;;;17.35;3.97;;;18.70;99.90;;;17.68;77.25;101966.41;5019139;28;20056;-89
2023/09/30 09:46:33;;;;;;;20.88;3.35;;;18.60;99.90;;;17.65;79.14;101961.25;4981176;23;20100;-91
2023/09/30 09:49:12;;;;;;;14.73;3.42;;;18.60;99.90;;;17.87;79.50;101952.06;4973484;28;20046;-87
2023/09/30 09:51:50;;;;;;;21.00;4.00;;;18.80;99.90;;;18.06;79.70;101959.84;4968529;28;20075;-87
2023/09/30 09:55:22;;;;;;;17.48;3.42;;;18.90;99.90;;;18.18;77.81;101943.13;4984581;28;20041;-88
2023/09/30 09:58:51;;;;;;;17.60;4.00;;;;;;;18.34;76.24;101948.41;4964261;28;20424;-88
2023/09/30 10:08:43;;;;;;;30.00;4.38;;;19.20;99.90;;;18.39;75.20;101956.97;5039425;23;20056;-88
2023/09/30 10:11:20;;;;;;;18.83;3.60;;;19.40;99.90;;;18.53;74.69;101964.13;4903065;29;20040;-88
2023/09/30 10:18:29;;;;;;;31.45;23.00;;;19.50;99.90;;;18.68;74.88;101957.88;4899953;29;21156;-88
2023/09/30 10:27:37;;;;;;;21.17;2.97;;;;;;;18.99;73.31;101959.53;5023657;23;20130;-88
2023/09/30 10:30:35;;;;;;;19.52;3.50;;;19.80;99.90;;;18.86;73.16;101958.59;4978248;28;20046;-88
2023/09/30 10:33:43;;;;;;;16.02;3.30;;;;;;;18.81;72.31;101963.34;5028295;28;20851;-90
2023/09/30 10:36:13;;;;;;;13.15;3.10;;;;;;;18.93;71.51;101972.41;4978253;28;20035;-89
2023/09/30 10:38:51;;;;;;;26.13;3.88;;;;;;;18.99;70.84;101972.03;5000263;28;20471;-87
2023/09/30 10:42:01;;;;;;;23.15;4.18;;;;;;;18.96;70.13;101988.22;4930932;28;20051;-88
2023/09/30 10:47:52;;;;;;;17.13;3.00;;;;;;;18.89;70.25;101982.41;5039787;23;20447;-87
2023/09/30 10:51:22;;;;;;;15.10;2.97;;;19.80;99.90;;;18.85;71.73;101979.09;4998991;28;20045;-88
2023/09/30 10:54:02;;;;;;;14.50;3.05;;;;;;;18.93;71.11;101983.94;4937727;28;20525;-87